Station Historical Data
Daily Summary for December 2, 2017 Units:  Metric    English   Both
« Previous Day
Next Day »
Daily Weekly Monthly Yearly Custom
  High: Low: Average:
Temperature: 7.1 °C -1.1 °C 2.9 °C
Dew Point: 2.8 °C -2.9 °C -0.3 °C
Humidity: 88% 70% 79%
Wind Speed: 6.4km/h 0km/h 0.5km/h
Wind Gust: 9.7km/h - -
Wind- - SSW
Pressure: 1024.9 hPa 1020.5 hPa -
Precipitation: 0 mm    
Historical Graphs
 
 
Tabular Data for December 2, 2017
Time Temperature Dew Point Pressure Wind Wind Speed Wind Gust Humidity Rainfall Rate (Hourly)
00:14 0.1 °C -2.5 °C 1024.3 hPa Calm     83% 0 mm
00:19 0.1 °C -2.4 °C 1024.3 hPa Calm     83% 0 mm
00:24 0.1 °C -2.5 °C 1024.3 hPa Calm     83% 0 mm
00:29 0 °C -2.6 °C 1024.3 hPa Calm     83% 0 mm
00:34 -0.1 °C -2.6 °C 1024.3 hPa Calm     83% 0 mm
00:49 -0.3 °C -2.7 °C 1024.3 hPa Calm     84% 0 mm
00:54 -0.3 °C -2.7 °C 1024.3 hPa Calm     84% 0 mm
00:59 -0.2 °C -2.6 °C 1024.3 hPa Calm     84% 0 mm
01:09 -0.2 °C -2.6 °C 1024.6 hPa Calm     84% 0 mm
01:14 -0.2 °C -2.6 °C 1024.6 hPa Calm     84% 0 mm
01:24 -0.3 °C -2.7 °C 1024.9 hPa Calm     84% 0 mm
01:29 -0.2 °C -2.4 °C 1024.9 hPa Calm     85% 0 mm
01:34 0 °C -2.2 °C 1024.9 hPa Calm     85% 0 mm
01:39 0.1 °C -2.1 °C 1024.9 hPa Calm     85% 0 mm
01:44 0.3 °C -1.9 °C 1024.9 hPa Calm     85% 0 mm
01:49 0.5 °C -1.7 °C 1024.9 hPa Calm     85% 0 mm
02:14 0.8 °C -1.6 °C 1024.3 hPa Calm     84% 0 mm
02:19 0.8 °C -1.6 °C 1024.3 hPa SSE 1.6 km/h 6.4 km/h 84% 0 mm
02:24 0.7 °C -1.7 °C 1024.3 hPa Calm   6.4 km/h 84% 0 mm
02:34 0.8 °C -1.6 °C 1024.3 hPa Calm     84% 0 mm
02:39 0.8 °C -1.6 °C 1024.3 hPa Calm     84% 0 mm
02:49 0.8 °C -1.6 °C 1024.3 hPa Calm     84% 0 mm
02:59 0.8 °C -1.6 °C 1024.3 hPa Calm     84% 0 mm
03:04 0.8 °C -1.6 °C 1024.3 hPa Calm     84% 0 mm
03:14 0.7 °C -1.7 °C 1024.3 hPa Calm     84% 0 mm
03:24 0.5 °C -1.7 °C 1024.6 hPa Calm     85% 0 mm
03:29 0.7 °C -1.6 °C 1024.6 hPa Calm     85% 0 mm
03:34 0.7 °C -1.6 °C 1024.3 hPa Calm     85% 0 mm
03:39 0.6 °C -1.6 °C 1024.3 hPa Calm     85% 0 mm
03:49 0.6 °C -1.7 °C 1024.3 hPa Calm     85% 0 mm
03:54 0.6 °C -1.7 °C 1024.3 hPa Calm     85% 0 mm
04:04 0.4 °C -1.8 °C 1023.9 hPa Calm     85% 0 mm
04:09 0.4 °C -1.8 °C 1023.9 hPa Calm     85% 0 mm
04:19 0.3 °C -1.9 °C 1023.9 hPa Calm     85% 0 mm
04:24 0.1 °C -2.1 °C 1023.9 hPa Calm     85% 0 mm
04:29 0 °C -2.2 °C 1023.9 hPa Calm     85% 0 mm
04:34 0 °C -2.1 °C 1023.9 hPa Calm     86% 0 mm
04:39 -0.1 °C -2.1 °C 1023.6 hPa Calm     86% 0 mm
04:44 -0.1 °C -2.2 °C 1023.6 hPa Calm     86% 0 mm
04:54 -0.2 °C -2.2 °C 1023.6 hPa Calm     86% 0 mm
04:59 -0.2 °C -2.3 °C 1023.6 hPa Calm     86% 0 mm
05:04 -0.2 °C -2.2 °C 1023.6 hPa Calm     86% 0 mm
05:09 -0.3 °C -2.4 °C 1023.6 hPa Calm     86% 0 mm
05:19 -0.6 °C -2.6 °C 1023.6 hPa Calm     86% 0 mm
05:24 -0.6 °C -2.5 °C 1023.6 hPa Calm     87% 0 mm
05:29 -0.7 °C -2.6 °C 1023.6 hPa Calm     87% 0 mm
05:34 -0.7 °C -2.6 °C 1023.6 hPa Calm     87% 0 mm
05:39 -0.7 °C -2.6 °C 1023.6 hPa Calm     87% 0 mm
05:44 -0.7 °C -2.6 °C 1023.6 hPa Calm     87% 0 mm
05:49 -0.7 °C -2.6 °C 1023.6 hPa Calm     87% 0 mm
06:04 -0.3 °C -2.1 °C 1023.6 hPa Calm     88% 0 mm
06:09 -0.4 °C -2.3 °C 1023.6 hPa Calm     87% 0 mm
06:14 -0.5 °C -2.4 °C 1023.9 hPa Calm     87% 0 mm
06:19 -0.5 °C -2.2 °C 1023.9 hPa Calm     88% 0 mm
06:24 -0.6 °C -2.4 °C 1023.9 hPa Calm     87% 0 mm
06:29 -0.6 °C -2.3 °C 1023.9 hPa Calm     88% 0 mm
06:44 -0.9 °C -2.8 °C 1023.9 hPa Calm     87% 0 mm
06:49 -1.1 °C -2.9 °C 1023.9 hPa Calm     87% 0 mm
07:09 -0.9 °C -2.6 °C 1023.9 hPa Calm     88% 0 mm
07:14 -0.8 °C -2.5 °C 1023.9 hPa Calm     88% 0 mm
07:19 -0.8 °C -2.5 °C 1023.9 hPa Calm     88% 0 mm
07:24 -0.8 °C -2.6 °C 1023.9 hPa Calm     88% 0 mm
07:34 -0.8 °C -2.6 °C 1023.9 hPa Calm     88% 0 mm
07:39 -0.8 °C -2.5 °C 1023.9 hPa Calm     88% 0 mm
07:44 -0.8 °C -2.5 °C 1023.9 hPa Calm     88% 0 mm
07:54 -0.6 °C -2.3 °C 1023.9 hPa Calm     88% 0 mm
07:59 -0.5 °C -2.2 °C 1023.9 hPa Calm     88% 0 mm
08:04 -0.4 °C -2.1 °C 1023.9 hPa Calm     88% 0 mm
08:09 -0.3 °C -2 °C 1023.9 hPa Calm     88% 0 mm
08:14 -0.2 °C -1.9 °C 1023.9 hPa Calm     88% 0 mm
08:19 0 °C -1.8 °C 1023.9 hPa Calm     88% 0 mm
08:24 0.2 °C -1.6 °C 1023.9 hPa Calm     88% 0 mm
08:34 0.4 °C -1.4 °C 1023.9 hPa Calm     87% 0 mm
08:49 0.9 °C -1.2 °C 1023.9 hPa Calm     86% 0 mm
08:54 1.1 °C -0.9 °C 1023.9 hPa Calm     86% 0 mm
08:59 1.3 °C -0.9 °C 1023.9 hPa Calm     85% 0 mm
09:04 1.4 °C -0.8 °C 1023.9 hPa Calm     85% 0 mm
09:09 1.6 °C -0.7 °C 1023.9 hPa Calm     85% 0 mm
09:14 1.8 °C -0.6 °C 1023.9 hPa Calm     84% 0 mm
09:19 1.9 °C -0.5 °C 1023.9 hPa Calm     84% 0 mm
09:24 2.2 °C -0.4 °C 1023.9 hPa Calm     83% 0 mm
09:29 2.3 °C -0.5 °C 1023.9 hPa Calm     82% 0 mm
09:34 2.4 °C -0.3 °C 1023.9 hPa Calm     82% 0 mm
09:44 2.7 °C -0.2 °C 1023.9 hPa Calm     81% 0 mm
09:49 2.8 °C -0.3 °C 1023.9 hPa Calm     80% 0 mm
09:59 3.2 °C -0.1 °C 1023.9 hPa Calm     79% 0 mm
10:04 3.3 °C 0.1 °C 1023.9 hPa Calm     79% 0 mm
10:09 3.5 °C 0.2 °C 1023.9 hPa Calm     79% 0 mm
10:14 3.6 °C 0.1 °C 1023.9 hPa Calm     78% 0 mm
10:19 3.8 °C 0.3 °C 1023.9 hPa Calm     78% 0 mm
10:24 3.8 °C 0.2 °C 1023.9 hPa Calm     77% 0 mm
10:29 3.9 °C 0.3 °C 1023.9 hPa Calm     77% 0 mm
10:34 4 °C 0.3 °C 1023.9 hPa Calm     77% 0 mm
10:39 4.1 °C 0.4 °C 1023.9 hPa Calm     77% 0 mm
10:44 4.2 °C 0.3 °C 1023.9 hPa Calm     76% 0 mm
10:49 4.3 °C 0.4 °C 1023.9 hPa Calm     76% 0 mm
10:54 4.3 °C 0.4 °C 1023.6 hPa Calm     76% 0 mm
10:59 4.4 °C 0.3 °C 1023.9 hPa SW 1.6 km/h 8 km/h 75% 0 mm
11:04 4.4 °C 0.6 °C 1023.6 hPa SW 1.6 km/h 8 km/h 76% 0 mm
11:09 4.6 °C 0.5 °C 1023.6 hPa Calm   4.8 km/h 75% 0 mm
11:14 4.6 °C 0.6 °C 1023.6 hPa Calm   4.8 km/h 75% 0 mm
11:19 4.7 °C 0.4 °C 1023.6 hPa SW 4.8 km/h 4.8 km/h 74% 0 mm
11:24 4.7 °C 0.7 °C 1023.6 hPa SW 1.6 km/h 4.8 km/h 75% 0 mm
11:29 4.8 °C 0.8 °C 1023.6 hPa SW 1.6 km/h 4.8 km/h 75% 0 mm
11:34 4.8 °C 0.6 °C 1023.6 hPa SW 1.6 km/h 4.8 km/h 74% 0 mm
11:44 5.1 °C 1.1 °C 1023.6 hPa SW 3.2 km/h 6.4 km/h 75% 0 mm
11:49 5.2 °C 1.2 °C 1023.2 hPa Calm   3.2 km/h 75% 0 mm
11:54 5.3 °C 1.2 °C 1023.2 hPa Calm   4.8 km/h 75% 0 mm
11:59 5.3 °C 1.1 °C 1023.2 hPa SW 1.6 km/h 6.4 km/h 74% 0 mm
12:09 5.3 °C 1.3 °C 1022.9 hPa SW 1.6 km/h 4.8 km/h 75% 0 mm
12:14 5.4 °C 1.3 °C 1022.9 hPa SW 1.6 km/h 4.8 km/h 75% 0 mm
12:19 5.4 °C 1.4 °C 1022.9 hPa Calm   3.2 km/h 75% 0 mm
12:24 5.5 °C 1.4 °C 1022.9 hPa SW 1.6 km/h 4.8 km/h 75% 0 mm
12:29 5.6 °C 1.4 °C 1022.6 hPa SW 1.6 km/h 4.8 km/h 75% 0 mm
12:34 5.8 °C 1.9 °C 1022.6 hPa SW 1.6 km/h 4.8 km/h 76% 0 mm
12:39 5.8 °C 1.7 °C 1022.6 hPa SW 4.8 km/h 6.4 km/h 75% 0 mm
12:44 5.8 °C 1.7 °C 1022.6 hPa Calm   4.8 km/h 75% 0 mm
12:49 5.8 °C 1.7 °C 1022.6 hPa WSW 1.6 km/h 4.8 km/h 75% 0 mm
12:54 5.9 °C 2.1 °C 1022.2 hPa SW 3.2 km/h 6.4 km/h 76% 0 mm
12:59 6.1 °C 2 °C 1022.6 hPa Calm   6.4 km/h 75% 0 mm
13:09 6.3 °C 2.2 °C 1022.2 hPa SW 1.6 km/h 8 km/h 75% 0 mm
13:14 6.3 °C 2.2 °C 1022.2 hPa WSW 1.6 km/h 8 km/h 75% 0 mm
13:19 6.2 °C 2.1 °C 1022.2 hPa SW 3.2 km/h 6.4 km/h 75% 0 mm
13:24 6 °C 2.1 °C 1021.9 hPa Calm   8 km/h 76% 0 mm
13:29 6.2 °C 2.2 °C 1021.9 hPa Calm     76% 0 mm
13:34 6.2 °C 2.2 °C 1021.9 hPa Calm     76% 0 mm
13:39 6.2 °C 2.2 °C 1021.9 hPa Calm   4.8 km/h 76% 0 mm
13:49 6.1 °C 2.2 °C 1021.9 hPa Calm   4.8 km/h 76% 0 mm
14:04 6.9 °C 2.8 °C 1021.9 hPa SW 1.6 km/h 8 km/h 75% 0 mm
14:09 6.8 °C 2.5 °C 1021.6 hPa SW 3.2 km/h 8 km/h 74% 0 mm
14:14 6.5 °C 2.4 °C 1021.6 hPa SSW 1.6 km/h 6.4 km/h 75% 0 mm
14:19 6.4 °C 2.3 °C 1021.2 hPa SSW 1.6 km/h 9.7 km/h 75% 0 mm
14:34 7.1 °C 2.6 °C 1021.6 hPa WSW 6.4 km/h 8 km/h 73% 0 mm
14:39 7.1 °C 2.6 °C 1021.2 hPa SSW 3.2 km/h 8 km/h 73% 0 mm
14:44 7.1 °C 2.6 °C 1021.2 hPa SSW 1.6 km/h 6.4 km/h 73% 0 mm
14:49 6.8 °C 2.3 °C 1021.2 hPa South 3.2 km/h 8 km/h 73% 0 mm
14:59 6.6 °C 2.1 °C 1021.6 hPa South 1.6 km/h 6.4 km/h 73% 0 mm
15:09 6.4 °C 2.1 °C 1021.2 hPa South 1.6 km/h 6.4 km/h 74% 0 mm
15:24 6.3 °C 1.8 °C 1021.2 hPa South 3.2 km/h 9.7 km/h 73% 0 mm
15:34 6.3 °C 2.1 °C 1021.2 hPa Calm   4.8 km/h 74% 0 mm
15:44 6.6 °C 1.9 °C 1021.2 hPa South 1.6 km/h 8 km/h 72% 0 mm
15:49 6.4 °C 1.7 °C 1021.2 hPa South 3.2 km/h 8 km/h 72% 0 mm
15:54 6.3 °C 1.6 °C 1021.2 hPa SE 3.2 km/h 3.2 km/h 72% 0 mm
15:59 6.3 °C 1.6 °C 1021.2 hPa SE 1.6 km/h 3.2 km/h 72% 0 mm
16:09 6.1 °C 1.2 °C 1020.9 hPa Calm   4.8 km/h 71% 0 mm
16:19 6.1 °C 1 °C 1020.9 hPa SSE 1.6 km/h 4.8 km/h 70% 0 mm
16:24 5.8 °C 0.8 °C 1020.9 hPa SSE 3.2 km/h 4.8 km/h 70% 0 mm
16:29 5.6 °C 0.6 °C 1020.9 hPa SSE 1.6 km/h 3.2 km/h 70% 0 mm
16:34 5.4 °C 0.4 °C 1020.5 hPa Calm   3.2 km/h 70% 0 mm
16:39 5.3 °C 0.2 °C 1020.5 hPa Calm   4.8 km/h 70% 0 mm
16:44 5.1 °C 0.2 °C 1020.9 hPa SSE 1.6 km/h 4.8 km/h 71% 0 mm
16:49 4.9 °C 0.3 °C 1020.9 hPa Calm   3.2 km/h 72% 0 mm
16:54 4.8 °C 0.2 °C 1020.9 hPa Calm     72% 0 mm
16:59 4.7 °C 0.1 °C 1020.9 hPa Calm     72% 0 mm
17:04 4.4 °C -0.1 °C 1021.2 hPa Calm     73% 0 mm
17:09 4.4 °C -0.1 °C 1021.6 hPa Calm     73% 0 mm
17:14 4.3 °C -0.1 °C 1021.6 hPa Calm     73% 0 mm
17:24 4.3 °C 0.1 °C 1021.6 hPa Calm     74% 0 mm
17:29 4.3 °C 0.1 °C 1021.6 hPa Calm     74% 0 mm
17:34 4.3 °C 0.2 °C 1021.6 hPa Calm     75% 0 mm
17:39 4.3 °C 0.1 °C 1021.6 hPa Calm     74% 0 mm
17:44 4.3 °C 0.3 °C 1021.6 hPa Calm     75% 0 mm
17:49 4.4 °C 0.3 °C 1021.6 hPa Calm     75% 0 mm
18:04 4.5 °C 0.4 °C 1021.6 hPa Calm     75% 0 mm
18:14 4.6 °C 0.5 °C 1021.6 hPa Calm     75% 0 mm
18:39 4.4 °C 0.6 °C 1021.9 hPa Calm     76% 0 mm
18:49 4.4 °C 0.7 °C 1022.2 hPa Calm     77% 0 mm
18:59 4.3 °C 0.6 °C 1021.9 hPa Calm     77% 0 mm
19:04 4.3 °C 0.6 °C 1022.2 hPa Calm     77% 0 mm
19:09 4.3 °C 0.8 °C 1022.2 hPa Calm     78% 0 mm
19:14 4.3 °C 0.8 °C 1022.2 hPa Calm     78% 0 mm
19:19 4.2 °C 0.7 °C 1022.2 hPa Calm     78% 0 mm
19:34 4.2 °C 0.5 °C 1021.9 hPa Calm     77% 0 mm
19:39 4.2 °C 0.5 °C 1021.9 hPa Calm     77% 0 mm
19:49 4.5 °C 0.6 °C 1022.2 hPa Calm   1.6 km/h 76% 0 mm
19:54 4.6 °C 0.5 °C 1022.2 hPa Calm     75% 0 mm
19:59 4.5 °C 0.3 °C 1022.2 hPa Calm     74% 0 mm
20:04 4.4 °C 0.2 °C 1022.2 hPa Calm     74% 0 mm
20:09 4.4 °C 0.2 °C 1021.9 hPa Calm     74% 0 mm
20:14 4.4 °C 0.2 °C 1021.9 hPa Calm   1.6 km/h 74% 0 mm
20:24 4.3 °C 0.1 °C 1021.9 hPa Calm   3.2 km/h 74% 0 mm
20:29 4.3 °C 0.1 °C 1021.9 hPa Calm   3.2 km/h 74% 0 mm
20:34 4.2 °C 0 °C 1021.6 hPa Calm   3.2 km/h 74% 0 mm
20:39 4.2 °C -0.1 °C 1021.6 hPa Calm     74% 0 mm
20:44 4.1 °C -0.2 °C 1021.6 hPa Calm     74% 0 mm
20:49 3.9 °C -0.1 °C 1021.6 hPa Calm     75% 0 mm
20:54 3.9 °C -0.2 °C 1021.6 hPa Calm     75% 0 mm
20:59 3.7 °C -0.3 °C 1021.6 hPa SSE 1.6 km/h 3.2 km/h 75% 0 mm
21:14 3.3 °C -0.5 °C 1021.6 hPa Calm   1.6 km/h 76% 0 mm
21:19 3.3 °C -0.5 °C 1021.6 hPa Calm     76% 0 mm
21:29 3.3 °C -0.4 °C 1021.6 hPa Calm     77% 0 mm
21:39 3.4 °C -0.2 °C 1021.6 hPa Calm     77% 0 mm
21:44 3.4 °C -0.2 °C 1021.6 hPa Calm     77% 0 mm
21:49 3.5 °C -0.2 °C 1021.6 hPa Calm     77% 0 mm
21:54 3.4 °C -0.2 °C 1021.2 hPa Calm     77% 0 mm
22:04 3.7 °C 0 °C 1021.6 hPa SSE 1.6 km/h 6.4 km/h 77% 0 mm
22:09 3.7 °C -0.2 °C 1021.2 hPa Calm     76% 0 mm
22:14 3.7 °C -0.2 °C 1021.2 hPa Calm     76% 0 mm
22:24 3.7 °C -0.2 °C 1021.2 hPa Calm     76% 0 mm
22:29 3.7 °C 0 °C 1021.2 hPa Calm     77% 0 mm
22:34 3.7 °C -0.2 °C 1021.2 hPa Calm     76% 0 mm
22:39 3.6 °C -0.1 °C 1021.2 hPa Calm     77% 0 mm
22:44 3.6 °C -0.1 °C 1020.9 hPa Calm     77% 0 mm
22:49 3.7 °C 0 °C 1021.2 hPa Calm     77% 0 mm
22:54 3.7 °C -0.1 °C 1020.9 hPa Calm     76% 0 mm
23:19 3.8 °C 0 °C 1020.9 hPa Calm     76% 0 mm
23:24 3.8 °C -0.1 °C 1021.2 hPa Calm     76% 0 mm
23:34 3.7 °C -0.2 °C 1021.2 hPa Calm     76% 0 mm
23:39 3.6 °C -0.1 °C 1021.2 hPa Calm     77% 0 mm
23:44 3.4 °C -0.2 °C 1021.2 hPa Calm     77% 0 mm
23:49 3.3 °C -0.3 °C 1021.2 hPa Calm     77% 0 mm
23:54 3.2 °C -0.2 °C 1021.2 hPa Calm     78% 0 mm
Buffalo, New York, USA
Compliments of Weather Underground - 2 mb